Terminal Aerodrome Forecast
Issued by NWS Detroit/Pontiac, MI

Home | Current Version | Previous Version | Text Only | Print | Product List | Glossary On
Versions: 1 2 3 4 5 6 7 8 9 10 11 12 13 14 15 16 17 18 19 20 21 22 23 24 25 26
187
FTUS43 KDTX 191329 AAA
TAFDTW
TAF AMD
KDTW 191329Z 1913/2018 16005KT 2SM -SHRA BR OVC008 WS020/25040KT
     FM191700 18006KT 3/4SM -RA BR OVC004
     FM192200 19012KT 2SM -SHRA BR OVC006
     FM201000 20013KT 4SM -SHRA BR OVC012=

USA.gov is the U.S. government's official web portal to all federal, state and local government web resources and services.